Time;durP1;ratioP1;P1;durP2;ratioP2;P2;SDS_P1;SDS_P2;PMS_P1;PMS_P2;Temp;Humidity;BMP_temperature;BMP_pressure;BME280_temperature;BME280_humidity;BME280_pressure;Samples;Min_cycle;Max_cycle;Signal;HPM_P1;HPM_P2
2023/10/15 00:02:03;;;;;;;1.67;0.90;;;;;;;;;;5092202;28;20523;-69
2023/10/15 00:04:29;;;;;;;1.97;1.10;;;;;;;;;;5091156;28;20428;-70
2023/10/15 00:06:55;;;;;;;9.93;1.30;;;;;;;;;;5090630;28;20766;-69
2023/10/15 00:09:21;;;;;;;4.13;1.27;;;;;;;;;;5092650;28;20443;-71
2023/10/15 00:11:47;;;;;;;3.90;1.37;;;;;;;;;;5091025;28;20451;-70
2023/10/15 00:14:13;;;;;;;1.90;1.00;;;;;;;;;;5087418;28;20445;-71
2023/10/15 00:16:39;;;;;;;0.93;0.93;;;;;;;;;;5088072;28;20623;-72
2023/10/15 00:19:10;;;;;;;2.57;1.50;;;;;;;;;;5092621;28;20515;-70
2023/10/15 00:21:37;;;;;;;4.10;1.10;;;;;;;;;;5088067;28;21024;-70
2023/10/15 00:24:05;;;;;;;2.80;1.43;;;;;;;;;;5089299;28;20440;-70
2023/10/15 00:26:31;;;;;;;1.10;1.10;;;;;;;;;;5092674;28;20421;-70
2023/10/15 00:28:57;;;;;;;1.17;1.17;;;;;;;;;;5091671;28;20463;-70
2023/10/15 00:31:24;;;;;;;1.40;1.30;;;;;;;;;;5085253;28;20489;-72
2023/10/15 00:33:50;;;;;;;3.07;1.30;;;;;;;;;;5090419;28;20996;-69
2023/10/15 00:36:16;;;;;;;3.27;1.17;;;;;;;;;;5090737;28;20482;-70
2023/10/15 00:38:46;;;;;;;1.20;1.10;;;;;;;;;;5092117;28;20420;-69
2023/10/15 00:41:13;;;;;;;4.93;0.93;;;;;;;;;;5089579;28;20436;-70
2023/10/15 00:43:54;;;;;;;2.20;1.13;;;;;;;;;;5088103;28;20459;-71
2023/10/15 00:46:20;;;;;;;2.50;0.80;;;;;;;;;;5087452;28;20544;-69
2023/10/15 00:48:47;;;;;;;2.07;1.57;;;;;;;;;;5089963;28;20987;-70
2023/10/15 00:51:13;;;;;;;3.03;1.20;;;;;;;;;;5090757;28;20784;-69
2023/10/15 00:53:49;;;;;;;1.57;1.13;;;;;;;;;;5086779;28;20847;-70
2023/10/15 00:56:17;;;;;;;1.37;1.30;;;;;;;;;;5090822;28;20856;-71
2023/10/15 01:03:51;;;;;;;2.80;1.20;;;;;;;;;;5087195;28;20900;-69
2023/10/15 01:06:28;;;;;;;3.37;1.73;;;;;;;;;;5090625;28;20420;-72
2023/10/15 01:08:55;;;;;;;1.20;1.10;;;;;;;;;;5091664;28;20431;-70
2023/10/15 01:11:27;;;;;;;5.87;1.30;;;;;;;;;;5088076;28;20494;-70
2023/10/15 01:13:53;;;;;;;8.60;1.30;;;;;;;;;;5086120;28;20951;-70
2023/10/15 01:16:20;;;;;;;1.50;1.50;;;;;;;;;;5091598;28;20846;-71
2023/10/15 01:18:56;;;;;;;1.13;0.90;;;;;;;;;;5086543;28;20428;-69
2023/10/15 01:21:27;;;;;;;2.03;1.33;;;;;;;;;;5087860;28;20455;-70
2023/10/15 01:24:08;;;;;;;2.40;1.60;;;;;;;;;;5088177;28;22073;-70
2023/10/15 01:26:36;;;;;;;4.23;1.30;;;;;;;;;;5089995;28;20424;-70
2023/10/15 01:29:05;;;;;;;2.50;1.10;;;;;;;;;;5085320;28;20445;-69
2023/10/15 01:31:39;;;;;;;1.70;1.60;;;;;;;;;;5091078;28;20752;-70
2023/10/15 01:34:09;;;;;;;2.37;1.10;;;;;;;;;;5084931;28;20932;-70
2023/10/15 01:36:38;;;;;;;2.57;0.97;;;;;;;;;;5088861;28;20488;-70
2023/10/15 01:39:10;;;;;;;3.83;1.17;;;;;;;;;;5091232;28;20409;-70
2023/10/15 01:41:39;;;;;;;4.03;1.30;;;;;;;;;;5089136;28;20939;-70
2023/10/15 01:44:07;;;;;;;1.30;1.10;;;;;;;;;;5085652;28;20428;-69
2023/10/15 01:49:07;;;;;;;1.53;0.87;;;;;;;;;;5091214;28;20424;-70
2023/10/15 01:51:39;;;;;;;4.47;1.23;;;;;;;;;;5085916;28;20807;-70
2023/10/15 01:54:09;;;;;;;1.13;0.90;;;;;;;;;;5088290;28;20417;-70
2023/10/15 01:56:36;;;;;;;3.70;1.07;;;;;;;;;;5089201;28;20553;-72
2023/10/15 01:59:07;;;;;;;1.50;1.00;;;;;;;;;;5088295;28;20440;-69
2023/10/15 02:01:37;;;;;;;1.77;1.40;;;;;;;;;;5087337;28;20421;-70
2023/10/15 02:04:03;;;;;;;1.10;1.10;;;;;;;;;;5087710;28;20429;-70
2023/10/15 02:06:35;;;;;;;4.40;1.00;;;;;;;;;;5084189;28;20429;-70
2023/10/15 02:09:07;;;;;;;0.80;0.80;;;;;;;;;;5090110;28;20424;-70
2023/10/15 02:11:36;;;;;;;1.30;1.20;;;;;;;;;;5090638;28;20430;-69
2023/10/15 02:14:07;;;;;;;1.80;0.80;;;;;;;;;;5085322;28;20467;-70
2023/10/15 02:16:37;;;;;;;3.87;1.17;;;;;;;;;;5085619;28;20465;-70
2023/10/15 02:19:07;;;;;;;0.80;0.80;;;;;;;;;;5090556;28;20843;-69
2023/10/15 02:21:34;;;;;;;1.37;0.80;;;;;;;;;;5089990;28;20523;-71
2023/10/15 02:24:09;;;;;;;3.33;1.27;;;;;;;;;;5082453;28;20444;-69
2023/10/15 02:26:35;;;;;;;1.80;1.30;;;;;;;;;;5087372;28;20434;-70
2023/10/15 02:29:21;;;;;;;3.17;1.00;;;;;;;;;;5089162;28;20841;-70
2023/10/15 02:31:47;;;;;;;1.43;0.60;;;;;;;;;;5089288;28;20428;-70
2023/10/15 02:34:16;;;;;;;2.00;1.23;;;;;;;;;;5084887;28;20527;-70
2023/10/15 02:36:42;;;;;;;2.30;0.73;;;;;;;;;;5085671;28;20479;-69
2023/10/15 02:39:08;;;;;;;1.80;1.00;;;;;;;;;;5100815;28;20425;-70
2023/10/15 02:41:41;;;;;;;1.80;1.70;;;;;;;;;;5088454;28;20795;-70
2023/10/15 02:44:13;;;;;;;5.60;0.70;;;;;;;;;;5085227;28;20452;-69
2023/10/15 02:46:48;;;;;;;1.53;1.00;;;;;;;;;;5085429;28;20861;-70
2023/10/15 02:49:17;;;;;;;6.47;1.20;;;;;;;;;;5087730;28;20425;-69
2023/10/15 02:51:45;;;;;;;1.63;0.60;;;;;;;;;;5086828;28;20491;-71
2023/10/15 02:54:27;;;;;;;7.13;0.97;;;;;;;;;;5087195;28;20424;-70
2023/10/15 02:56:59;;;;;;;2.30;1.23;;;;;;;;;;5086029;28;20487;-70
2023/10/15 02:59:29;;;;;;;1.07;0.87;;;;;;;;;;5087604;28;20563;-70
2023/10/15 03:01:56;;;;;;;2.83;1.20;;;;;;;;;;5084905;28;20932;-70
2023/10/15 03:04:38;;;;;;;1.33;0.70;;;;;;;;;;5089293;28;20415;-70
2023/10/15 03:07:42;;;;;;;3.90;1.00;;;;;;;;;;5087290;28;20428;-71
2023/10/15 03:09:57;;;;;;;1.23;1.13;;;;;;;;;;5086078;28;20448;-69
2023/10/15 03:12:33;;;;;;;5.30;1.40;;;;;;;;;;5085034;28;20444;-71
2023/10/15 03:15:00;;;;;;;2.73;1.77;;;;;;;;;;5089041;28;20424;-71
2023/10/15 03:17:29;;;;;;;0.90;0.80;;;;;;;;;;5085378;28;20583;-70
2023/10/15 03:20:11;;;;;;;1.20;1.03;;;;;;;;;;5089037;28;20436;-71
2023/10/15 03:22:40;;;;;;;1.27;1.17;;;;;;;;;;5091134;28;20443;-71
2023/10/15 03:25:13;;;;;;;1.40;1.13;;;;;;;;;;5093274;28;20416;-72
2023/10/15 03:27:39;;;;;;;1.27;1.10;;;;;;;;;;5085469;28;20432;-70
2023/10/15 03:30:05;;;;;;;1.47;1.23;;;;;;;;;;5089429;28;20462;-70
2023/10/15 03:32:31;;;;;;;1.17;1.07;;;;;;;;;;5093590;28;20420;-69
2023/10/15 03:35:17;;;;;;;4.87;1.60;;;;;;;;;;5090932;28;20517;-69
2023/10/15 03:37:46;;;;;;;3.70;1.07;;;;;;;;;;5090930;28;20571;-70
2023/10/15 03:40:32;;;;;;;1.90;1.23;;;;;;;;;;5090178;28;20436;-69
2023/10/15 03:43:06;;;;;;;2.60;1.30;;;;;;;;;;5092131;28;21487;-69
2023/10/15 03:45:33;;;;;;;1.90;1.23;;;;;;;;;;5093146;28;20408;-69
2023/10/15 03:48:00;;;;;;;4.33;1.60;;;;;;;;;;5087409;28;20643;-69
2023/10/15 03:50:29;;;;;;;2.57;2.40;;;;;;;;;;5089720;28;20472;-69
2023/10/15 03:52:58;;;;;;;2.73;2.50;;;;;;;;;;5092338;28;20499;-69
2023/10/15 03:55:24;;;;;;;2.80;1.47;;;;;;;;;;5089314;28;20519;-69
2023/10/15 03:57:52;;;;;;;5.00;1.20;;;;;;;;;;5091416;28;20586;-70
2023/10/15 04:00:46;;;;;;;2.83;0.70;;;;;;;;;;5089651;28;20533;-72
2023/10/15 04:03:30;;;;;;;3.27;1.17;;;;;;;;;;5091590;28;20592;-70
2023/10/15 04:06:00;;;;;;;1.23;1.13;;;;;;;;;;5092426;28;20427;-71
2023/10/15 04:08:27;;;;;;;9.83;2.20;;;;;;;;;;5089025;28;21411;-69
2023/10/15 04:10:55;;;;;;;1.03;1.03;;;;;;;;;;5087947;28;20471;-70
2023/10/15 04:13:21;;;;;;;3.27;1.40;;;;;;;;;;5091944;28;20468;-70
2023/10/15 04:15:47;;;;;;;1.67;1.57;;;;;;;;;;5088216;28;20468;-71
2023/10/15 04:18:13;;;;;;;3.03;1.80;;;;;;;;;;5089363;28;20444;-70
2023/10/15 04:20:42;;;;;;;1.53;1.33;;;;;;;;;;5084726;28;20449;-70
2023/10/15 04:23:21;;;;;;;8.53;1.57;;;;;;;;;;5089107;28;20460;-70
2023/10/15 04:25:47;;;;;;;4.50;1.40;;;;;;;;;;5092442;28;20462;-70
2023/10/15 04:28:14;;;;;;;2.63;1.10;;;;;;;;;;5090455;28;20424;-71
2023/10/15 04:30:40;;;;;;;5.53;1.70;;;;;;;;;;5086159;28;20433;-70
2023/10/15 04:33:10;;;;;;;1.90;1.30;;;;;;;;;;5091815;28;20421;-70
2023/10/15 04:35:37;;;;;;;1.27;1.27;;;;;;;;;;5089450;28;20472;-70
2023/10/15 04:38:09;;;;;;;5.30;1.40;;;;;;;;;;5090276;28;20971;-70
2023/10/15 04:41:00;;;;;;;2.60;1.70;;;;;;;;;;5091549;28;20842;-70
2023/10/15 04:43:26;;;;;;;1.03;1.00;;;;;;;;;;5086319;28;20471;-69
2023/10/15 04:45:56;;;;;;;2.30;1.60;;;;;;;;;;5089745;28;20485;-70
2023/10/15 04:48:33;;;;;;;1.67;1.30;;;;;;;;;;5092401;28;20420;-69
2023/10/15 04:51:04;;;;;;;5.47;1.80;;;;;;;;;;5088741;28;20875;-70
2023/10/15 04:53:31;;;;;;;7.10;2.00;;;;;;;;;;5088718;28;20803;-70
2023/10/15 04:55:57;;;;;;;2.03;1.97;;;;;;;;;;5090597;28;20892;-70
2023/10/15 04:58:27;;;;;;;3.67;1.20;;;;;;;;;;5091835;28;20440;-70
2023/10/15 05:00:54;;;;;;;2.83;1.70;;;;;;;;;;5086764;28;20898;-70
2023/10/15 05:03:21;;;;;;;2.97;1.40;;;;;;;;;;5086555;28;20476;-69
2023/10/15 05:05:47;;;;;;;1.47;1.37;;;;;;;;;;5088821;28;20446;-69
2023/10/15 05:08:17;;;;;;;4.10;1.20;;;;;;;;;;5090348;28;20787;-70
2023/10/15 05:10:50;;;;;;;1.70;1.07;;;;;;;;;;5088760;28;20818;-70
2023/10/15 05:13:16;;;;;;;1.10;1.10;;;;;;;;;;5083635;28;20449;-69
2023/10/15 05:15:46;;;;;;;1.60;1.20;;;;;;;;;;5091077;28;20431;-70
2023/10/15 05:18:12;;;;;;;1.00;1.00;;;;;;;;;;5091574;28;20417;-70
2023/10/15 05:20:38;;;;;;;1.73;0.80;;;;;;;;;;5089926;28;20413;-70
2023/10/15 05:23:04;;;;;;;1.00;1.00;;;;;;;;;;5085645;28;20819;-70
2023/10/15 05:25:30;;;;;;;3.00;0.90;;;;;;;;;;5090554;28;20917;-70
2023/10/15 05:27:57;;;;;;;1.27;1.13;;;;;;;;;;5088723;28;20437;-69
2023/10/15 05:30:23;;;;;;;5.13;1.10;;;;;;;;;;5089231;28;20413;-70
2023/10/15 05:32:49;;;;;;;1.20;1.10;;;;;;;;;;5087282;28;20435;-70
2023/10/15 05:35:17;;;;;;;0.90;0.90;;;;;;;;;;5091018;28;20925;-70
2023/10/15 05:37:44;;;;;;;3.47;1.13;;;;;;;;;;5088435;28;20591;-71
2023/10/15 05:40:12;;;;;;;8.83;1.20;;;;;;;;;;5088744;28;20428;-70
2023/10/15 05:42:38;;;;;;;0.70;0.70;;;;;;;;;;5090212;28;20431;-71
2023/10/15 05:45:07;;;;;;;1.20;1.10;;;;;;;;;;5080291;28;20531;-72
2023/10/15 05:47:34;;;;;;;1.03;1.00;;;;;;;;;;5087112;28;20460;-70
2023/10/15 05:50:00;;;;;;;1.63;0.83;;;;;;;;;;5088142;28;20444;-70
2023/10/15 05:52:26;;;;;;;1.23;1.00;;;;;;;;;;5079148;28;20429;-61
2023/10/15 05:54:53;;;;;;;1.10;1.10;;;;;;;;;;5086127;28;20512;-60
2023/10/15 05:57:22;;;;;;;1.13;0.93;;;;;;;;;;5085812;28;20843;-62
2023/10/15 05:59:49;;;;;;;0.90;0.63;;;;;;;;;;5088530;28;20444;-61
2023/10/15 06:02:15;;;;;;;3.20;0.80;;;;;;;;;;5090047;28;20447;-65
2023/10/15 06:04:42;;;;;;;1.30;0.90;;;;;;;;;;5082854;28;20798;-62
2023/10/15 06:07:09;;;;;;;1.33;0.90;;;;;;;;;;5087600;28;20917;-60
2023/10/15 06:09:35;;;;;;;2.57;1.17;;;;;;;;;;5088367;28;20436;-61
2023/10/15 06:12:01;;;;;;;1.57;1.23;;;;;;;;;;5087870;28;20442;-64
2023/10/15 06:14:30;;;;;;;0.63;0.63;;;;;;;;;;5089547;28;20427;-64
2023/10/15 06:16:57;;;;;;;0.63;0.63;;;;;;;;;;5088512;28;20583;-61
2023/10/15 06:19:23;;;;;;;0.50;0.50;;;;;;;;;;5078919;28;20433;-64
2023/10/15 06:21:49;;;;;;;1.33;0.67;;;;;;;;;;5087872;28;20446;-64
2023/10/15 06:24:15;;;;;;;0.83;0.83;;;;;;;;;;5089439;28;20433;-61
2023/10/15 06:26:41;;;;;;;2.00;0.90;;;;;;;;;;5089958;28;21714;-61
2023/10/15 06:29:09;;;;;;;1.47;0.70;;;;;;;;;;5087011;28;20976;-62
2023/10/15 06:31:35;;;;;;;1.00;0.80;;;;;;;;;;5088613;28;20515;-62
2023/10/15 06:34:01;;;;;;;2.77;0.80;;;;;;;;;;5085848;28;20440;-61
2023/10/15 06:36:27;;;;;;;1.33;1.23;;;;;;;;;;5089238;28;20480;-61
2023/10/15 06:38:53;;;;;;;2.47;1.20;;;;;;;;;;5089703;28;20477;-61
2023/10/15 06:41:19;;;;;;;0.97;0.97;;;;;;;;;;5085590;28;20463;-69
2023/10/15 06:43:47;;;;;;;3.40;1.30;;;;;;;;;;5086279;28;20432;-68
2023/10/15 06:46:12;;;;;;;1.40;1.30;;;;;;;;;;5085775;28;20574;-69
2023/10/15 06:48:38;;;;;;;1.77;1.37;;;;;;;;;;5079524;28;20531;-71
2023/10/15 06:51:06;;;;;;;1.80;1.67;;;;;;;;;;5078549;28;20436;-69
2023/10/15 06:53:32;;;;;;;2.97;1.10;;;;;;;;;;5085457;28;20551;-70
2023/10/15 06:55:58;;;;;;;3.77;1.07;;;;;;;;;;5098954;28;20551;-72
2023/10/15 06:58:25;;;;;;;2.73;0.83;;;;;;;;;;5071865;28;20449;-69
2023/10/15 07:00:54;;;;;;;0.53;0.53;;;;;;;;;;5056918;28;20447;-71
2023/10/15 07:03:20;;;;;;;4.00;1.33;;;;;;;;;;5072015;28;20432;-70
2023/10/15 07:05:46;;;;;;;3.23;1.60;;;;;;;;;;5074115;28;20454;-70
2023/10/15 07:08:12;;;;;;;3.20;2.90;;;;;;;;;;5083159;28;20528;-71
2023/10/15 07:10:39;;;;;;;4.13;1.50;;;;;;;;;;5077121;28;21048;-70
2023/10/15 07:13:05;;;;;;;2.90;2.70;;;;;;;;;;5087490;28;20424;-71
2023/10/15 07:15:35;;;;;;;3.70;3.50;;;;;;;;;;5081457;28;20468;-69
2023/10/15 07:18:01;;;;;;;7.20;1.40;;;;;;;;;;5072199;28;20484;-70
2023/10/15 07:20:27;;;;;;;0.87;0.83;;;;;;;;;;5086523;28;20437;-71
2023/10/15 07:22:53;;;;;;;1.90;1.00;;;;;;;;;;5084746;28;20877;-71
2023/10/15 07:25:20;;;;;;;2.23;1.43;;;;;;;;;;5089067;28;20432;-69
2023/10/15 07:27:46;;;;;;;1.10;1.10;;;;;;;;;;5087736;28;20800;-72
2023/10/15 07:30:13;;;;;;;0.77;0.77;;;;;;;;;;5084037;28;20444;-70
2023/10/15 07:32:40;;;;;;;15.90;1.20;;;;;;;;;;5084845;28;20464;-70
2023/10/15 07:35:07;;;;;;;2.80;1.37;;;;;;;;;;5083452;28;20482;-71
2023/10/15 07:37:34;;;;;;;1.13;0.93;;;;;;;;;;5086661;28;20492;-70
2023/10/15 07:40:00;;;;;;;2.50;1.67;;;;;;;;;;5083441;28;20440;-70
2023/10/15 07:42:26;;;;;;;3.60;2.70;;;;;;;;;;5084994;28;20444;-70
2023/10/15 07:44:52;;;;;;;2.20;1.00;;;;;;;;;;5079246;28;20438;-70
2023/10/15 07:47:18;;;;;;;1.30;1.20;;;;;;;;;;5084702;28;20504;-69
2023/10/15 07:49:45;;;;;;;2.50;1.37;;;;;;;;;;5084078;28;20428;-70
2023/10/15 07:52:11;;;;;;;1.77;1.67;;;;;;;;;;5085695;28;20479;-69
2023/10/15 07:54:37;;;;;;;2.53;1.43;;;;;;;;;;5084451;28;20425;-69
2023/10/15 07:57:04;;;;;;;3.03;1.60;;;;;;;;;;5087534;28;20523;-70
2023/10/15 07:59:30;;;;;;;1.00;1.00;;;;;;;;;;5084485;28;20924;-69
2023/10/15 08:01:55;;;;;;;1.53;1.17;;;;;;;;;;5086046;28;20935;-69
2023/10/15 08:04:22;;;;;;;4.27;1.77;;;;;;;;;;5086534;28;20433;-70
2023/10/15 08:06:48;;;;;;;1.10;1.10;;;;;;;;;;5090185;28;20445;-70
2023/10/15 08:09:14;;;;;;;4.00;1.80;;;;;;;;;;5088135;28;20432;-70
2023/10/15 08:11:41;;;;;;;2.67;1.40;;;;;;;;;;5087355;28;20443;-73
2023/10/15 08:14:07;;;;;;;5.70;0.90;;;;;;;;;;5087909;28;20424;-70
2023/10/15 08:16:33;;;;;;;5.27;1.67;;;;;;;;;;5091348;28;20463;-70
2023/10/15 08:18:59;;;;;;;1.07;0.90;;;;;;;;;;5090467;28;20436;-70
2023/10/15 08:21:25;;;;;;;1.27;1.17;;;;;;;;;;5085092;28;20432;-70
2023/10/15 08:23:53;;;;;;;2.13;1.20;;;;;;;;;;5091632;28;20432;-70
2023/10/15 08:26:19;;;;;;;7.00;2.00;;;;;;;;;;5086558;28;20771;-71
2023/10/15 08:28:45;;;;;;;1.80;1.10;;;;;;;;;;5090724;28;20536;-66
2023/10/15 08:31:11;;;;;;;1.37;1.20;;;;;;;;;;5090561;28;20936;-69
2023/10/15 08:33:37;;;;;;;3.47;2.47;;;;;;;;;;5089830;28;20493;-70
2023/10/15 08:36:03;;;;;;;1.50;1.23;;;;;;;;;;5090127;28;20460;-70
2023/10/15 08:38:29;;;;;;;3.43;1.10;;;;;;;;;;5091546;28;20439;-70
2023/10/15 08:40:56;;;;;;;8.80;3.67;;;;;;;;;;5088827;28;20416;-70
2023/10/15 08:43:24;;;;;;;3.00;1.30;;;;;;;;;;5089905;28;20436;-70
2023/10/15 08:45:51;;;;;;;0.93;0.90;;;;;;;;;;5091557;28;20429;-70
2023/10/15 08:48:18;;;;;;;4.53;1.03;;;;;;;;;;5090259;28;20432;-69
2023/10/15 08:50:45;;;;;;;4.20;2.40;;;;;;;;;;5090999;28;20416;-70
2023/10/15 08:53:13;;;;;;;2.40;1.40;;;;;;;;;;5089414;28;20434;-70
2023/10/15 08:55:41;;;;;;;1.07;1.07;;;;;;;;;;5089983;28;20525;-70
2023/10/15 08:58:09;;;;;;;3.70;1.73;;;;;;;;;;5092039;28;20440;-69
2023/10/15 09:00:36;;;;;;;3.27;1.10;;;;;;;;;;5088170;28;20437;-69
2023/10/15 09:03:03;;;;;;;9.33;2.30;;;;;;;;;;5087061;28;21075;-70
2023/10/15 09:05:30;;;;;;;1.40;0.93;;;;;;;;;;5090068;28;20412;-70
2023/10/15 09:07:56;;;;;;;9.20;1.43;;;;;;;;;;5090173;28;20409;-69
2023/10/15 09:10:23;;;;;;;1.77;0.93;;;;;;;;;;5090658;28;20441;-69
2023/10/15 09:12:50;;;;;;;2.10;0.80;;;;;;;;;;5080493;28;20429;-70
2023/10/15 09:15:16;;;;;;;2.40;1.30;;;;;;;;;;5089527;28;20437;-69
2023/10/15 09:18:02;;;;;;;0.77;0.77;;;;;;;;;;5089530;28;20488;-69
2023/10/15 09:20:32;;;;;;;2.60;1.63;;;;;;;;;;5090333;28;20454;-69
2023/10/15 09:22:59;;;;;;;7.50;4.80;;;;;;;;;;5089490;28;20452;-70
2023/10/15 09:25:29;;;;;;;3.17;2.97;;;;;;;;;;5088717;28;20428;-69
2023/10/15 09:27:56;;;;;;;42.10;17.57;;;;;;;;;;5090797;28;20552;-70
2023/10/15 09:30:23;;;;;;;7.43;3.30;;;;;;;;;;5088161;28;20440;-69
2023/10/15 09:32:49;;;;;;;0.80;0.80;;;;;;;;;;5083337;28;20931;-67
2023/10/15 09:35:15;;;;;;;0.97;0.97;;;;;;;;;;5085120;28;20452;-70
2023/10/15 09:37:41;;;;;;;3.80;1.23;;;;;;;;;;5088470;28;20494;-70
2023/10/15 09:42:55;;;;;;;2.10;0.97;;;;;;;;;;5088194;28;20435;-65
2023/10/15 09:45:25;;;;;;;1.48;1.00;;;;;;;;;;5090322;28;20973;-66
2023/10/15 09:47:57;;;;;;;1.27;1.10;;;;;;;;;;5089976;28;20416;-66
2023/10/15 09:50:27;;;;;;;1.48;1.10;;;;;;;;;;5085983;28;20797;-69
2023/10/15 09:52:57;;;;;;;1.73;0.73;;;;;;;;;;5078940;28;20190;-68
2023/10/15 09:55:24;;;;;;;0.90;0.90;;;;;;;;;;5088112;28;20955;-68
2023/10/15 09:57:55;;;;;;;6.30;2.20;;;;;;;;;;5088366;28;20499;-68
2023/10/15 10:00:32;;;;;;;1.70;1.57;;;;;;;;;;5083055;28;20416;-69
2023/10/15 10:03:08;;;;;;;2.87;1.10;;;;;;;;;;5082057;28;20471;-69
2023/10/15 10:05:49;;;;;;;4.83;1.30;;;;;;;;;;5077315;28;20465;-71
2023/10/15 10:08:47;;;;;;;1.37;0.83;;;;;;;;;;5083897;28;20448;-68
2023/10/15 10:11:34;;;;;;;2.40;0.60;;;;;;;;;;5039728;28;20448;-60
2023/10/15 10:14:00;;;;;;;1.48;1.08;;;;;;;;;;5082193;28;20425;-68
2023/10/15 10:16:27;;;;;;;4.00;2.30;;;;;;;;;;5085266;28;20207;-68
2023/10/15 10:18:53;;;;;;;1.00;1.00;;;;;;;;;;5089647;28;20512;-69
2023/10/15 10:21:22;;;;;;;2.40;1.07;;;;;;;;;;5086575;28;21011;-69
2023/10/15 10:23:52;;;;;;;3.43;0.93;;;;;;;;;;5087506;28;20432;-69
2023/10/15 10:26:19;;;;;;;1.40;1.30;;;;;;;;;;5082835;28;20433;-68
2023/10/15 10:28:46;;;;;;;7.60;0.77;;;;;;;;;;5083843;28;20186;-69
2023/10/15 10:31:13;;;;;;;1.10;1.10;;;;;;;;;;5074867;28;20448;-68
2023/10/15 10:33:40;;;;;;;6.73;1.00;;;;;;;;;;5072339;28;20456;-69
2023/10/15 10:36:26;;;;;;;1.03;0.70;;;;;;;;;;5083074;28;20529;-68
2023/10/15 10:39:11;;;;;;;1.50;0.50;;;;;;;;;;5082110;28;20446;-68
2023/10/15 10:41:44;;;;;;;0.90;0.70;;;;;;;;;;5079865;28;20512;-68
2023/10/15 10:44:12;;;;;;;0.67;0.67;;;;;;;;;;5081524;28;20442;-68
2023/10/15 10:46:42;;;;;;;0.60;0.60;;;;;;;;;;5086241;28;20438;-68
2023/10/15 10:49:18;;;;;;;1.13;0.60;;;;;;;;;;5086084;28;20884;-68
2023/10/15 10:52:03;;;;;;;0.87;0.77;;;;;;;;;;5085038;28;20437;-69
2023/10/15 10:54:29;;;;;;;4.80;0.63;;;;;;;;;;5076513;28;20432;-69
2023/10/15 10:56:58;;;;;;;0.83;0.83;;;;;;;;;;5080795;28;20996;-69
2023/10/15 10:59:24;;;;;;;1.03;0.70;;;;;;;;;;5082849;28;20528;-69
2023/10/15 11:01:50;;;;;;;3.58;0.70;;;;;;;;;;5085514;28;20525;-70
2023/10/15 11:04:16;;;;;;;0.83;0.83;;;;;;;;;;5083422;28;20187;-70
2023/10/15 11:06:45;;;;;;;0.70;0.70;;;;;;;;;;5087446;28;20519;-70
2023/10/15 11:09:30;;;;;;;3.30;0.93;;;;;;;;;;5089345;28;20765;-69
2023/10/15 11:11:57;;;;;;;0.63;0.63;;;;;;;;;;5084651;28;20868;-70
2023/10/15 11:14:23;;;;;;;3.70;0.80;;;;;;;;;;5082922;28;20467;-69
2023/10/15 11:16:54;;;;;;;2.60;1.50;;;;;;;;;;5089811;28;20504;-68
2023/10/15 11:19:23;;;;;;;1.40;1.30;;;;;;;;;;5088684;28;20881;-69
2023/10/15 11:21:49;;;;;;;1.10;1.10;;;;;;;;;;5089758;28;20473;-69
2023/10/15 11:24:16;;;;;;;0.60;0.60;;;;;;;;;;5089088;28;20500;-68
2023/10/15 11:26:44;;;;;;;0.63;0.53;;;;;;;;;;5086927;28;20424;-68
2023/10/15 11:29:10;;;;;;;0.87;0.87;;;;;;;;;;5085742;28;20838;-68
2023/10/15 11:31:44;;;;;;;1.10;1.00;;;;;;;;;;5089477;28;20500;-69
2023/10/15 11:34:16;;;;;;;1.20;1.10;;;;;;;;;;5089040;28;20416;-69
2023/10/15 11:36:48;;;;;;;1.63;0.87;;;;;;;;;;5088077;28;20460;-69
2023/10/15 11:39:29;;;;;;;0.53;0.53;;;;;;;;;;5089824;28;20531;-71
2023/10/15 11:41:56;;;;;;;3.70;1.47;;;;;;;;;;5093032;28;20915;-70
2023/10/15 11:44:26;;;;;;;1.00;1.00;;;;;;;;;;5091491;28;20939;-69
2023/10/15 11:46:53;;;;;;;2.70;1.50;;;;;;;;;;5092193;28;20388;-75
2023/10/15 11:49:22;;;;;;;4.27;0.80;;;;;;;;;;5092670;28;20723;-68
2023/10/15 11:51:48;;;;;;;3.20;1.20;;;;;;;;;;5093071;28;20422;-68
2023/10/15 11:54:15;;;;;;;1.37;0.77;;;;;;;;;;5091350;28;20498;-68
2023/10/15 11:56:46;;;;;;;0.77;0.77;;;;;;;;;;5091637;28;21108;-69
2023/10/15 11:59:12;;;;;;;0.63;0.63;;;;;;;;;;5091278;28;20428;-68
2023/10/15 12:01:38;;;;;;;0.70;0.70;;;;;;;;;;5092976;28;20507;-69
2023/10/15 12:04:07;;;;;;;0.60;0.60;;;;;;;;;;5090010;28;20507;-69
2023/10/15 12:06:33;;;;;;;1.40;0.50;;;;;;;;;;5090669;28;20463;-68
2023/10/15 12:08:59;;;;;;;1.13;0.60;;;;;;;;;;5092547;28;20425;-68
2023/10/15 12:11:28;;;;;;;1.27;0.70;;;;;;;;;;5091800;28;20424;-69
2023/10/15 12:13:55;;;;;;;1.80;1.50;;;;;;;;;;5089626;28;20515;-69
2023/10/15 12:16:21;;;;;;;0.93;0.80;;;;;;;;;;5085243;28;20468;-68
2023/10/15 12:18:47;;;;;;;1.23;1.00;;;;;;;;;;5091093;28;20443;-69
2023/10/15 12:21:14;;;;;;;0.80;0.80;;;;;;;;;;5090877;28;20948;-69
2023/10/15 12:23:43;;;;;;;1.50;1.40;;;;;;;;;;5091804;28;20437;-70
2023/10/15 12:26:08;;;;;;;1.17;1.17;;;;;;;;;;5092159;28;20420;-69
2023/10/15 12:28:44;;;;;;;0.90;0.90;;;;;;;;;;5090980;28;20432;-68
2023/10/15 12:31:10;;;;;;;0.80;0.80;;;;;;;;;;5091649;28;20431;-68
2023/10/15 12:33:36;;;;;;;0.93;0.57;;;;;;;;;;5091075;28;20904;-68
2023/10/15 12:36:02;;;;;;;1.50;1.40;;;;;;;;;;5090309;28;20440;-70
2023/10/15 12:38:28;;;;;;;2.00;0.83;;;;;;;;;;5088221;28;20815;-69
2023/10/15 12:40:55;;;;;;;0.50;0.50;;;;;;;;;;5090997;28;20520;-70
2023/10/15 12:43:21;;;;;;;0.70;0.70;;;;;;;;;;5090054;28;20827;-69
2023/10/15 12:45:52;;;;;;;1.13;0.90;;;;;;;;;;5091775;28;20439;-68
2023/10/15 12:48:18;;;;;;;0.83;0.60;;;;;;;;;;5091596;28;20424;-68
2023/10/15 12:50:44;;;;;;;0.60;0.60;;;;;;;;;;5090927;28;20463;-69
2023/10/15 12:53:10;;;;;;;0.60;0.60;;;;;;;;;;5089055;28;20429;-69
2023/10/15 12:55:36;;;;;;;1.20;0.93;;;;;;;;;;5091322;28;20490;-68
2023/10/15 12:58:02;;;;;;;0.60;0.60;;;;;;;;;;5091440;28;20476;-70
2023/10/15 13:00:29;;;;;;;0.70;0.70;;;;;;;;;;5089987;28;20445;-68
2023/10/15 13:02:55;;;;;;;1.60;0.70;;;;;;;;;;5088463;28;20432;-66
2023/10/15 13:05:22;;;;;;;2.10;0.70;;;;;;;;;;5089725;28;20425;-69
2023/10/15 13:07:49;;;;;;;0.70;0.70;;;;;;;;;;5090495;28;20439;-68
2023/10/15 13:10:17;;;;;;;0.83;0.70;;;;;;;;;;5091351;28;20425;-68
2023/10/15 13:12:44;;;;;;;0.90;0.80;;;;;;;;;;5089392;28;20472;-68
2023/10/15 13:15:10;;;;;;;1.40;1.30;;;;;;;;;;5086622;28;20436;-68
2023/10/15 13:17:41;;;;;;;1.00;1.00;;;;;;;;;;5091024;28;20472;-69
2023/10/15 13:20:10;;;;;;;1.40;1.30;;;;;;;;;;5089867;28;20425;-70
2023/10/15 13:22:36;;;;;;;1.60;1.00;;;;;;;;;;5091171;28;20787;-68
2023/10/15 13:25:02;;;;;;;2.53;0.77;;;;;;;;;;5089496;28;20484;-68
2023/10/15 13:27:28;;;;;;;0.90;0.90;;;;;;;;;;5089537;28;20958;-69
2023/10/15 13:29:54;;;;;;;2.53;0.70;;;;;;;;;;5091366;28;20420;-68
2023/10/15 13:32:20;;;;;;;1.17;0.80;;;;;;;;;;5090956;28;20790;-69
2023/10/15 13:34:48;;;;;;;3.33;0.53;;;;;;;;;;5088803;28;20440;-69
2023/10/15 13:37:14;;;;;;;1.47;1.37;;;;;;;;;;5090818;28;20545;-64
2023/10/15 13:39:40;;;;;;;1.47;1.40;;;;;;;;;;5090890;28;20424;-68
2023/10/15 13:42:07;;;;;;;1.00;0.90;;;;;;;;;;5090890;28;20436;-68
2023/10/15 13:44:33;;;;;;;0.70;0.70;;;;;;;;;;5087317;28;20437;-68
2023/10/15 13:46:59;;;;;;;2.90;1.10;;;;;;;;;;5090878;28;20424;-68
2023/10/15 13:49:26;;;;;;;1.57;1.47;;;;;;;;;;5089198;28;20519;-68
2023/10/15 13:51:52;;;;;;;1.80;0.80;;;;;;;;;;5088185;28;20429;-68
2023/10/15 13:54:18;;;;;;;1.47;1.37;;;;;;;;;;5086453;28;20486;-68
2023/10/15 13:56:44;;;;;;;0.70;0.67;;;;;;;;;;5090208;28;20480;-68
2023/10/15 13:59:14;;;;;;;0.77;0.60;;;;;;;;;;5089121;28;20436;-68
2023/10/15 14:01:43;;;;;;;3.23;0.70;;;;;;;;;;5089108;28;20798;-69
2023/10/15 14:04:09;;;;;;;0.63;0.63;;;;;;;;;;5087241;28;20898;-68
2023/10/15 14:06:36;;;;;;;6.23;0.87;;;;;;;;;;5090577;28;20824;-68
2023/10/15 14:09:02;;;;;;;1.30;0.97;;;;;;;;;;5081261;28;20462;-68
2023/10/15 14:11:29;;;;;;;0.70;0.70;;;;;;;;;;5089983;28;20413;-68
2023/10/15 14:13:55;;;;;;;0.80;0.80;;;;;;;;;;5089366;28;20523;-69
2023/10/15 14:16:22;;;;;;;1.20;1.10;;;;;;;;;;5090092;28;20467;-69
2023/10/15 14:18:48;;;;;;;0.83;0.83;;;;;;;;;;5089257;28;20845;-69
2023/10/15 14:21:16;;;;;;;0.60;0.60;;;;;;;;;;5089967;28;20427;-69
2023/10/15 14:23:43;;;;;;;3.23;0.97;;;;;;;;;;5085566;28;20471;-69
2023/10/15 14:26:09;;;;;;;3.30;1.03;;;;;;;;;;5089768;28;20416;-68
2023/10/15 14:28:35;;;;;;;0.53;0.53;;;;;;;;;;5089718;28;20425;-68
2023/10/15 14:31:01;;;;;;;4.00;0.70;;;;;;;;;;5088304;28;20424;-68
2023/10/15 14:33:27;;;;;;;0.47;0.47;;;;;;;;;;5089398;28;20802;-68
2023/10/15 14:35:54;;;;;;;1.03;0.80;;;;;;;;;;5088024;28;20424;-68
2023/10/15 14:38:20;;;;;;;1.03;0.70;;;;;;;;;;5088097;28;20979;-68
2023/10/15 14:40:46;;;;;;;0.73;0.73;;;;;;;;;;5089975;28;20538;-68
2023/10/15 14:43:12;;;;;;;0.80;0.73;;;;;;;;;;5087049;28;20432;-68
2023/10/15 14:45:38;;;;;;;2.63;1.37;;;;;;;;;;5086976;28;20428;-69
2023/10/15 14:48:05;;;;;;;0.70;0.70;;;;;;;;;;5088871;28;20446;-68
2023/10/15 14:50:30;;;;;;;0.70;0.70;;;;;;;;;;5089643;28;20753;-68
2023/10/15 14:52:56;;;;;;;2.43;0.90;;;;;;;;;;5089280;28;20926;-68
2023/10/15 14:55:25;;;;;;;2.13;0.90;;;;;;;;;;5089157;28;20429;-68
2023/10/15 14:57:50;;;;;;;0.73;0.67;;;;;;;;;;5089763;28;20484;-69
2023/10/15 15:00:16;;;;;;;1.67;0.80;;;;;;;;;;5087605;28;21436;-68
2023/10/15 15:02:45;;;;;;;0.53;0.53;;;;;;;;;;5089346;28;20803;-68